Time;durP1;ratioP1;P1;durP2;ratioP2;P2;SDS_P1;SDS_P2;PMS_P1;PMS_P2;Temp;Humidity;BMP_temperature;BMP_pressure;BME280_temperature;BME280_humidity;BME280_pressure;Samples;Min_cycle;Max_cycle;Signal;HPM_P1;HPM_P2
2021/05/20 00:02:20;;;;;;;9.18;6.55;;;7.70;99.90;;;;;;5078744;28;20424;-86
2021/05/20 00:04:48;;;;;;;9.05;6.43;;;7.70;99.90;;;;;;5080105;28;20044;-85
2021/05/20 00:07:15;;;;;;;7.18;5.82;;;7.70;99.90;;;;;;5078477;28;20067;-85
2021/05/20 00:09:42;;;;;;;7.90;5.82;;;7.70;99.90;;;;;;5078360;28;20484;-86
2021/05/20 00:12:09;;;;;;;6.43;5.90;;;7.80;99.90;;;;;;5096463;28;20090;-86
2021/05/20 00:14:36;;;;;;;6.40;5.88;;;7.80;99.90;;;;;;5078019;28;20075;-85
2021/05/20 00:17:03;;;;;;;6.07;5.45;;;7.80;99.90;;;;;;5078449;28;20064;-86
2021/05/20 00:19:30;;;;;;;6.18;5.60;;;7.70;99.90;;;;;;5078484;28;20139;-86
2021/05/20 00:21:57;;;;;;;5.97;5.38;;;7.70;99.90;;;;;;5096209;28;20096;-86
2021/05/20 00:24:23;;;;;;;4.90;4.50;;;7.70;99.90;;;;;;5096355;28;20595;-86
2021/05/20 00:26:50;;;;;;;5.53;5.03;;;7.70;99.90;;;;;;5078962;28;20155;-86
2021/05/20 00:29:17;;;;;;;9.60;5.10;;;7.70;99.90;;;;;;5078932;28;20076;-85
2021/05/20 00:31:44;;;;;;;5.93;5.40;;;7.70;99.90;;;;;;5078775;28;20176;-85
2021/05/20 00:34:11;;;;;;;5.82;5.22;;;7.50;99.90;;;;;;5078890;28;20127;-85
2021/05/20 00:36:38;;;;;;;8.05;5.65;;;7.60;99.90;;;;;;5078485;28;20072;-85
2021/05/20 00:39:05;;;;;;;5.93;5.32;;;7.60;99.90;;;;;;5079854;28;20082;-85
2021/05/20 00:41:32;;;;;;;5.10;4.60;;;7.70;99.90;;;;;;5079548;28;20091;-86
2021/05/20 00:43:59;;;;;;;6.45;4.25;;;7.70;99.90;;;;;;5078001;28;20059;-85
2021/05/20 00:46:26;;;;;;;5.10;4.70;;;7.70;99.90;;;;;;5079203;28;20090;-86
2021/05/20 00:48:53;;;;;;;8.00;5.85;;;7.80;99.90;;;;;;5079277;28;20082;-86
2021/05/20 00:51:19;;;;;;;5.97;5.13;;;7.70;99.90;;;;;;5078931;28;20131;-85
2021/05/20 00:53:48;;;;;;;4.55;4.25;;;7.80;99.90;;;;;;5078713;28;20044;-86
2021/05/20 00:56:19;;;;;;;5.40;5.00;;;7.70;99.90;;;;;;5078955;28;20071;-85
2021/05/20 00:58:46;;;;;;;5.68;4.45;;;7.70;99.90;;;;;;5097175;28;20068;-86
2021/05/20 01:01:13;;;;;;;4.38;3.97;;;7.70;99.90;;;;;;5079072;28;20080;-86
2021/05/20 01:03:40;;;;;;;4.78;4.38;;;7.60;99.90;;;;;;5078491;28;20491;-86
2021/05/20 01:06:07;;;;;;;4.05;3.75;;;7.50;99.90;;;;;;5095977;28;20075;-86
2021/05/20 01:08:34;;;;;;;3.70;3.40;;;7.40;99.90;;;;;;5078038;28;20080;-86
2021/05/20 01:11:01;;;;;;;4.18;3.83;;;7.20;99.90;;;;;;5096212;28;20142;-85
2021/05/20 01:13:28;;;;;;;4.38;3.67;;;7.10;99.90;;;;;;5077945;28;20135;-86
2021/05/20 01:15:55;;;;;;;5.07;4.55;;;7.00;99.90;;;;;;5077936;28;20090;-86
2021/05/20 01:18:21;;;;;;;4.25;3.95;;;6.90;99.90;;;;;;5078362;28;20485;-85
2021/05/20 01:20:48;;;;;;;4.18;3.80;;;6.80;99.90;;;;;;5078444;28;20075;-85
2021/05/20 01:23:20;;;;;;;4.47;3.83;;;6.70;99.90;;;;;;5078201;28;20059;-86
2021/05/20 01:25:49;;;;;;;7.35;4.45;;;6.70;99.90;;;;;;5096126;28;20075;-86
2021/05/20 01:28:19;;;;;;;4.80;4.45;;;6.70;99.90;;;;;;5077757;28;20055;-86
2021/05/20 01:30:48;;;;;;;4.43;3.97;;;6.60;99.90;;;;;;5078121;28;20082;-85
2021/05/20 01:33:15;;;;;;;4.88;4.38;;;6.50;99.90;;;;;;5077717;28;20051;-86
2021/05/20 01:35:44;;;;;;;4.63;4.22;;;6.50;99.90;;;;;;5079420;28;20040;-88
2021/05/20 01:40:51;;;;;;;6.22;4.07;;;6.40;99.90;;;;;;5094334;28;20068;-87
2021/05/20 01:43:17;;;;;;;4.60;4.20;;;6.40;99.90;;;;;;5070877;28;20051;-87
2021/05/20 01:46:00;;;;;;;4.75;4.35;;;6.40;99.90;;;;;;5080817;28;20090;-86
2021/05/20 01:48:34;;;;;;;4.72;4.28;;;6.40;99.90;;;;;;5070395;28;20139;-86
2021/05/20 01:51:12;;;;;;;7.85;4.47;;;6.40;99.90;;;;;;5095664;28;20109;-86
2021/05/20 01:53:45;;;;;;;5.20;4.70;;;6.30;99.90;;;;;;5077895;28;20044;-86
2021/05/20 01:56:14;;;;;;;6.53;5.28;;;6.20;99.90;;;;;;5077891;28;20122;-86
2021/05/20 01:58:41;;;;;;;5.10;4.70;;;6.10;99.90;;;;;;5095866;28;20058;-86
2021/05/20 02:01:08;;;;;;;5.22;4.65;;;6.10;99.90;;;;;;5079806;28;20108;-86
2021/05/20 02:03:36;;;;;;;6.05;4.75;;;6.10;99.90;;;;;;5080577;28;20058;-86
2021/05/20 02:06:05;;;;;;;4.97;4.47;;;6.00;99.90;;;;;;5098819;28;20058;-87
2021/05/20 02:08:33;;;;;;;6.75;5.10;;;6.00;99.90;;;;;;5080130;28;20556;-86
2021/05/20 02:11:01;;;;;;;4.80;4.10;;;5.90;99.90;;;;;;5079722;28;20497;-86
2021/05/20 02:13:28;;;;;;;5.68;5.15;;;5.90;99.90;;;;;;5077068;28;20138;-86
2021/05/20 02:15:55;;;;;;;4.97;4.57;;;5.80;99.90;;;;;;5078131;28;20127;-87
2021/05/20 02:18:22;;;;;;;5.80;5.20;;;5.80;99.90;;;;;;5077687;28;20040;-86
2021/05/20 02:20:49;;;;;;;5.40;4.90;;;5.70;99.90;;;;;;5093661;28;20067;-86
2021/05/20 02:23:17;;;;;;;4.50;4.20;;;5.70;99.90;;;;;;5076038;28;20051;-86
2021/05/20 02:25:45;;;;;;;4.60;4.28;;;5.70;99.90;;;;;;5076727;28;20051;-85
2021/05/20 02:28:12;;;;;;;4.22;3.92;;;5.70;99.90;;;;;;5077012;28;20084;-86
2021/05/20 02:30:38;;;;;;;4.53;3.80;;;5.70;99.90;;;;;;5077803;28;20419;-86
2021/05/20 02:33:05;;;;;;;5.72;4.20;;;5.70;99.90;;;;;;5076937;28;20139;-86
2021/05/20 02:35:32;;;;;;;4.65;4.18;;;5.70;99.90;;;;;;5077104;28;20075;-86
2021/05/20 02:37:59;;;;;;;6.03;4.22;;;5.60;99.90;;;;;;5077556;28;20072;-86
2021/05/20 02:40:26;;;;;;;6.22;4.82;;;5.50;99.90;;;;;;5095753;28;20151;-86
2021/05/20 02:42:52;;;;;;;5.40;5.00;;;5.50;99.90;;;;;;5076709;28;20075;-86
2021/05/20 02:45:23;;;;;;;7.57;5.18;;;5.40;99.90;;;;;;5095763;28;20059;-86
2021/05/20 02:47:53;;;;;;;;;;;5.40;99.90;;;;;;5077553;28;20052;-86
2021/05/20 02:50:23;;;;;;;5.28;4.78;;;5.50;99.90;;;;;;5077658;28;19966;-86
2021/05/20 02:52:50;;;;;;;6.53;4.25;;;5.50;99.90;;;;;;5077596;28;20055;-86
2021/05/20 02:55:18;;;;;;;4.57;4.00;;;5.60;99.90;;;;;;5076812;28;20040;-87
2021/05/20 02:57:49;;;;;;;5.18;4.68;;;5.60;99.90;;;;;;5076401;28;20052;-86
2021/05/20 03:00:19;;;;;;;6.82;6.20;;;5.60;99.90;;;;;;5077865;28;20068;-86
2021/05/20 03:02:50;;;;;;;8.90;5.63;;;5.50;99.90;;;;;;5078034;28;20047;-86
2021/05/20 03:05:18;;;;;;;5.65;5.00;;;5.50;99.90;;;;;;5077218;28;20060;-86
2021/05/20 03:07:46;;;;;;;4.65;4.25;;;5.50;99.90;;;;;;5094904;28;20048;-85
2021/05/20 03:10:14;;;;;;;5.10;4.28;;;5.40;99.90;;;;;;5076530;28;20051;-86
2021/05/20 03:12:40;;;;;;;5.18;4.32;;;5.40;99.90;;;;;;5076554;28;20080;-86
2021/05/20 03:15:08;;;;;;;6.47;4.90;;;5.40;99.90;;;;;;5076702;28;20463;-86
2021/05/20 03:17:35;;;;;;;6.13;5.20;;;5.30;99.90;;;;;;5076974;28;20044;-86
2021/05/20 03:20:05;;;;;;;8.40;4.78;;;5.30;99.90;;;;;;5094913;28;20040;-85
2021/05/20 03:22:32;;;;;;;6.38;4.70;;;5.30;99.90;;;;;;5080175;28;20048;-88
2021/05/20 03:24:58;;;;;;;5.57;5.07;;;5.40;99.90;;;;;;5101543;28;20082;-87
2021/05/20 03:27:26;;;;;;;5.60;5.10;;;5.40;99.90;;;;;;5082918;28;20083;-87
2021/05/20 03:29:52;;;;;;;8.27;5.07;;;5.40;99.90;;;;;;5082713;28;20493;-86
2021/05/20 03:32:19;;;;;;;6.72;5.85;;;5.60;99.90;;;;;;5082798;28;20052;-86
2021/05/20 03:34:47;;;;;;;6.35;5.75;;;5.70;99.90;;;;;;5082144;28;20040;-86
2021/05/20 03:37:13;;;;;;;7.50;6.30;;;5.80;99.90;;;;;;5075270;28;20075;-86
2021/05/20 03:39:40;;;;;;;7.35;5.70;;;5.90;99.90;;;;;;5075014;28;20063;-86
2021/05/20 03:42:07;;;;;;;7.00;6.30;;;6.00;99.90;;;;;;5075663;28;20040;-86
2021/05/20 03:44:34;;;;;;;7.80;6.45;;;6.10;99.90;;;;;;5075479;28;20131;-86
2021/05/20 03:47:00;;;;;;;6.68;5.90;;;6.10;99.90;;;;;;5075254;28;20044;-86
2021/05/20 03:49:27;;;;;;;10.60;7.88;;;6.20;99.90;;;;;;5093240;28;20074;-86
2021/05/20 03:51:54;;;;;;;8.52;7.50;;;6.30;99.90;;;;;;5075061;28;20052;-86
2021/05/20 03:54:21;;;;;;;7.20;6.50;;;6.40;99.90;;;;;;5075935;28;20118;-86
2021/05/20 03:56:48;;;;;;;6.32;5.78;;;6.50;99.90;;;;;;5077345;28;20072;-86
2021/05/20 03:59:14;;;;;;;5.50;4.95;;;6.60;99.90;;;;;;5096321;28;20040;-86
2021/05/20 04:01:41;;;;;;;7.57;6.60;;;6.60;99.90;;;;;;5098236;28;20075;-86
2021/05/20 04:04:08;;;;;;;7.07;6.20;;;6.60;99.90;;;;;;5080261;28;20468;-87
2021/05/20 04:06:35;;;;;;;6.75;5.60;;;6.50;99.90;;;;;;5078961;28;20424;-86
2021/05/20 04:09:02;;;;;;;5.47;5.07;;;6.60;99.90;;;;;;5077739;28;20712;-85
2021/05/20 04:11:29;;;;;;;5.35;4.88;;;6.70;99.90;;;;;;5079526;28;20106;-86
2021/05/20 04:13:56;;;;;;;5.88;4.70;;;6.60;99.90;;;;;;5097752;28;20060;-86
2021/05/20 04:16:25;;;;;;;5.28;4.85;;;6.60;99.90;;;;;;5098129;28;20127;-86
2021/05/20 04:18:53;;;;;;;6.40;4.82;;;6.70;99.90;;;;;;5081492;28;20048;-87
2021/05/20 04:21:19;;;;;;;6.38;4.97;;;6.80;99.90;;;;;;5099885;28;20050;-86
2021/05/20 04:23:48;;;;;;;5.45;4.72;;;6.90;99.90;;;;;;5100333;28;20054;-86
2021/05/20 04:26:19;;;;;;;7.50;4.72;;;7.00;99.90;;;;;;5082287;28;20044;-86
2021/05/20 04:28:47;;;;;;;4.95;4.60;;;7.10;99.90;;;;;;5083008;28;20055;-87
2021/05/20 04:31:14;;;;;;;5.13;4.20;;;7.20;99.90;;;;;;5083349;28;20133;-87
2021/05/20 04:33:41;;;;;;;7.82;5.22;;;7.20;99.90;;;;;;5080806;28;20101;-85
2021/05/20 04:36:08;;;;;;;6.85;6.00;;;7.20;99.90;;;;;;5079533;28;20046;-86
2021/05/20 04:38:35;;;;;;;12.55;6.28;;;7.20;99.90;;;;;;5100601;28;20469;-87
2021/05/20 04:41:02;;;;;;;9.20;6.55;;;7.20;99.90;;;;;;5099797;28;20126;-86
2021/05/20 04:43:29;;;;;;;9.25;5.95;;;7.30;99.90;;;;;;5097417;28;20044;-85
2021/05/20 04:45:57;;;;;;;9.95;6.32;;;7.30;99.90;;;;;;5097026;28;20102;-86
2021/05/20 04:48:24;;;;;;;7.50;5.20;;;7.30;99.90;;;;;;5080907;28;20066;-86
2021/05/20 04:50:51;;;;;;;12.75;6.28;;;7.30;99.90;;;;;;5078796;28;20087;-86
2021/05/20 04:53:18;;;;;;;10.32;5.97;;;7.30;99.90;;;;;;5080317;28;20145;-86
2021/05/20 04:55:45;;;;;;;9.27;4.85;;;7.30;99.90;;;;;;5079910;28;20079;-86
2021/05/20 04:58:11;;;;;;;6.00;4.47;;;7.30;99.90;;;;;;5079638;28;20090;-87
2021/05/20 05:00:38;;;;;;;5.70;4.00;;;7.30;99.90;;;;;;5082129;28;20064;-86
2021/05/20 05:03:05;;;;;;;3.67;3.38;;;7.30;99.90;;;;;;5083497;28;20118;-87
2021/05/20 05:05:32;;;;;;;3.80;3.50;;;7.20;99.90;;;;;;5079846;28;20048;-86
2021/05/20 05:07:59;;;;;;;4.85;3.40;;;7.20;99.90;;;;;;5099713;28;20056;-86
2021/05/20 05:10:26;;;;;;;8.68;3.35;;;7.20;99.90;;;;;;5085268;28;20052;-87
2021/05/20 05:12:53;;;;;;;6.90;3.17;;;7.20;99.90;;;;;;5085325;28;20079;-87
2021/05/20 05:15:19;;;;;;;2.90;2.67;;;7.20;99.90;;;;;;5083895;28;20063;-87
2021/05/20 05:17:46;;;;;;;4.55;3.28;;;7.20;99.90;;;;;;5101823;28;20102;-86
2021/05/20 05:20:13;;;;;;;3.17;2.97;;;7.20;99.90;;;;;;5083514;28;20071;-86
2021/05/20 05:22:40;;;;;;;3.30;3.00;;;7.30;99.90;;;;;;5083277;28;20055;-86
2021/05/20 05:25:07;;;;;;;2.42;2.22;;;7.30;99.90;;;;;;5083192;28;20075;-86
2021/05/20 05:27:34;;;;;;;2.78;2.58;;;7.30;99.90;;;;;;5076902;28;20079;-86
2021/05/20 05:30:01;;;;;;;4.93;2.30;;;7.30;99.90;;;;;;5077164;28;20048;-85
2021/05/20 05:32:27;;;;;;;2.75;2.38;;;7.30;99.90;;;;;;5096328;28;20135;-86
2021/05/20 05:34:54;;;;;;;3.20;2.88;;;7.30;99.90;;;;;;5078539;28;20080;-86
2021/05/20 05:37:21;;;;;;;2.67;2.40;;;7.40;99.90;;;;;;5095319;28;20090;-86
2021/05/20 05:39:48;;;;;;;3.53;3.22;;;7.40;99.90;;;;;;5095178;28;20556;-86
2021/05/20 05:42:15;;;;;;;3.42;2.88;;;7.50;99.90;;;;;;5095020;28;20072;-86
2021/05/20 05:44:42;;;;;;;2.85;2.65;;;7.70;99.90;;;;;;5077155;28;20480;-86
2021/05/20 05:47:09;;;;;;;3.35;3.10;;;7.90;99.90;;;;;;5077497;28;20135;-86
2021/05/20 05:49:43;;;;;;;2.65;2.55;;;8.20;99.90;;;;;;5076805;28;20134;-86
2021/05/20 05:52:16;;;;;;;1.98;1.75;;;8.50;99.90;;;;;;5077153;28;20083;-86
2021/05/20 05:54:43;;;;;;;4.13;1.52;;;8.70;99.90;;;;;;5078458;28;20515;-86
2021/05/20 05:57:10;;;;;;;2.38;1.63;;;8.70;99.90;;;;;;5078627;28;20501;-86
2021/05/20 05:59:37;;;;;;;2.63;1.63;;;8.80;99.90;;;;;;5077004;28;20080;-86
2021/05/20 06:02:04;;;;;;;1.83;1.73;;;8.80;99.90;;;;;;5076775;28;20090;-86
2021/05/20 06:04:31;;;;;;;5.32;1.73;;;9.10;99.90;;;;;;5076568;28;20127;-85
2021/05/20 06:06:59;;;;;;;7.32;2.80;;;9.40;99.90;;;;;;5093652;28;20555;-84
2021/05/20 06:09:26;;;;;;;6.65;2.33;;;9.50;99.90;;;;;;5093732;28;20100;-83
2021/05/20 06:11:53;;;;;;;4.03;1.85;;;9.70;99.90;;;;;;5093759;28;20044;-85
2021/05/20 06:14:20;;;;;;;1.38;1.30;;;10.00;99.90;;;;;;5094111;28;20052;-85
2021/05/20 06:16:46;;;;;;;3.05;1.45;;;10.20;99.90;;;;;;5076763;28;20132;-84
2021/05/20 06:19:13;;;;;;;3.40;1.52;;;10.40;99.90;;;;;;5077215;28;20476;-85
2021/05/20 06:21:40;;;;;;;3.58;2.17;;;10.30;99.90;;;;;;5076421;28;20453;-85
2021/05/20 06:24:07;;;;;;;4.63;1.63;;;10.20;99.90;;;;;;5094631;28;20044;-85
2021/05/20 06:26:34;;;;;;;1.58;1.35;;;10.30;99.90;;;;;;5076782;28;20472;-85
2021/05/20 06:29:02;;;;;;;1.92;1.52;;;10.40;99.90;;;;;;5076228;28;20422;-84
2021/05/20 06:31:29;;;;;;;4.57;1.70;;;10.30;99.90;;;;;;5076272;28;20097;-85
2021/05/20 06:33:56;;;;;;;2.22;1.55;;;10.30;99.90;;;;;;5076458;28;20189;-84
2021/05/20 06:36:24;;;;;;;1.88;1.38;;;10.20;99.90;;;;;;5076010;28;20469;-83
2021/05/20 06:38:52;;;;;;;3.35;1.80;;;10.10;99.90;;;;;;5093802;28;20135;-84
2021/05/20 06:41:20;;;;;;;5.45;1.90;;;9.90;99.90;;;;;;5075978;28;20089;-84
2021/05/20 06:43:47;;;;;;;5.20;1.70;;;9.70;99.90;;;;;;5075632;28;20074;-84
2021/05/20 06:46:13;;;;;;;3.17;2.05;;;9.70;99.90;;;;;;5094266;28;20075;-84
2021/05/20 06:48:40;;;;;;;2.38;1.60;;;9.70;99.90;;;;;;5093366;28;20567;-83
2021/05/20 06:51:07;;;;;;;7.97;2.50;;;9.80;99.90;;;;;;5094179;28;20101;-85
2021/05/20 06:53:36;;;;;;;3.88;1.90;;;10.10;99.90;;;;;;5093657;28;20100;-83
2021/05/20 06:56:05;;;;;;;2.05;1.80;;;10.20;99.90;;;;;;5094157;28;20132;-84
2021/05/20 07:01:17;;;;;;;2.80;2.13;;;10.10;99.90;;;;;;5101684;28;20048;-86
2021/05/20 07:03:44;;;;;;;2.67;2.20;;;9.80;99.90;;;;;;5083277;28;20131;-85
2021/05/20 07:06:14;;;;;;;5.43;2.38;;;9.60;99.90;;;;;;5079916;28;20043;-82
2021/05/20 07:08:41;;;;;;;6.63;2.45;;;9.40;99.90;;;;;;5096488;28;20044;-82
2021/05/20 07:11:08;;;;;;;3.88;2.15;;;9.30;99.90;;;;;;5095273;28;20504;-82
2021/05/20 07:13:35;;;;;;;6.63;2.85;;;9.10;99.90;;;;;;5076352;28;20490;-80
2021/05/20 07:16:02;;;;;;;7.68;2.80;;;9.10;99.90;;;;;;5077636;28;20467;-81
2021/05/20 07:18:29;;;;;;;4.65;3.17;;;9.10;99.90;;;;;;5093318;28;20041;-81
2021/05/20 07:20:56;;;;;;;6.13;2.85;;;9.30;99.90;;;;;;5092844;28;20040;-81
2021/05/20 07:23:23;;;;;;;6.50;3.22;;;9.50;99.90;;;;;;5074849;28;20044;-81
2021/05/20 07:25:50;;;;;;;3.08;2.80;;;9.80;99.90;;;;;;5093095;28;20079;-81
2021/05/20 07:28:17;;;;;;;4.05;2.40;;;10.20;99.90;;;;;;5092897;28;20117;-81
2021/05/20 07:30:44;;;;;;;6.65;2.63;;;10.40;99.90;;;;;;5092862;28;20083;-80
2021/05/20 07:33:12;;;;;;;9.57;3.03;;;10.60;99.90;;;;;;5093467;28;20048;-81
2021/05/20 07:35:40;;;;;;;5.47;4.07;;;10.90;99.90;;;;;;5074557;28;20135;-81
2021/05/20 07:38:07;;;;;;;4.05;2.50;;;11.20;99.90;;;;;;5075439;28;20059;-81
2021/05/20 07:40:34;;;;;;;4.43;2.40;;;11.30;99.90;;;;;;5095492;28;20497;-82
2021/05/20 07:43:01;;;;;;;3.83;2.33;;;11.50;99.90;;;;;;5076524;28;20052;-82
2021/05/20 07:45:29;;;;;;;4.82;3.95;;;11.30;99.90;;;;;;5076184;28;20102;-82
2021/05/20 07:47:56;;;;;;;5.10;2.40;;;11.30;99.90;;;;;;5076199;28;20732;-82
2021/05/20 07:50:22;;;;;;;2.67;2.30;;;11.50;99.90;;;;;;5094020;28;20079;-82
2021/05/20 07:52:49;;;;;;;3.10;1.80;;;11.80;99.90;;;;;;5094190;28;20105;-82
2021/05/20 07:55:16;;;;;;;2.85;1.80;;;12.10;99.90;;;;;;5097803;28;20404;-81
2021/05/20 07:57:43;;;;;;;6.55;2.28;;;12.60;99.90;;;;;;5080225;28;20081;-79
2021/05/20 08:00:12;;;;;;;4.30;1.67;;;12.90;99.90;;;;;;5097976;28;20044;-82
2021/05/20 08:05:20;;;;;;;3.63;1.90;;;13.10;99.90;;;;;;5097749;28;20075;-82
2021/05/20 08:08:07;;;;;;;3.45;1.52;;;13.10;99.90;;;;;;5079436;28;20048;-81
2021/05/20 08:13:04;;;;;;;3.90;1.55;;;14.60;99.90;;;;;;5097490;28;20075;-80
2021/05/20 08:15:31;;;;;;;5.55;3.97;;;15.30;99.90;;;;;;5099756;28;20040;-81
2021/05/20 08:17:58;;;;;;;5.00;1.10;;;15.60;99.90;;;;;;5097885;28;20071;-81
2021/05/20 08:20:25;;;;;;;3.58;1.00;;;17.10;99.90;;;;;;5081012;28;20044;-81
2021/05/20 08:22:52;;;;;;;1.92;0.98;;;19.20;99.90;;;;;;5080796;28;20272;-82
2021/05/20 08:25:18;;;;;;;1.20;1.10;;;21.40;99.90;;;;;;5082197;28;20044;-81
2021/05/20 08:27:45;;;;;;;2.80;1.15;;;22.70;99.90;;;;;;5083210;28;20424;-82
2021/05/20 08:30:13;;;;;;;5.32;1.48;;;22.90;99.90;;;;;;5081418;28;20055;-82
2021/05/20 08:32:40;;;;;;;4.50;1.67;;;22.70;99.90;;;;;;5098092;28;20044;-83
2021/05/20 08:35:07;;;;;;;2.95;1.30;;;22.50;99.90;;;;;;5081627;28;20083;-82
2021/05/20 08:37:35;;;;;;;1.77;1.05;;;20.70;99.90;;;;;;5082019;28;20048;-81
2021/05/20 08:40:03;;;;;;;1.58;1.45;;;21.30;99.90;;;;;;5082504;28;20056;-83
2021/05/20 08:42:31;;;;;;;1.73;1.15;;;22.30;99.90;;;;;;5081469;28;20048;-82
2021/05/20 08:45:17;;;;;;;1.50;1.38;;;23.10;98.60;;;;;;5100320;28;20080;-83
2021/05/20 08:47:46;;;;;;;3.08;1.73;;;22.50;98.70;;;;;;5102761;28;20052;-83
2021/05/20 08:50:14;;;;;;;1.38;1.27;;;21.30;99.90;;;;;;5104874;28;20083;-84
2021/05/20 08:52:42;;;;;;;1.35;1.25;;;19.90;99.90;;;;;;5086717;28;20084;-84
2021/05/20 08:55:15;;;;;;;3.15;1.58;;;18.90;99.90;;;;;;5103310;28;20091;-82
2021/05/20 08:57:42;;;;;;;3.42;1.80;;;18.50;99.90;;;;;;5101339;28;20052;-80
2021/05/20 09:00:16;;;;;;;5.63;1.73;;;17.90;99.90;;;;;;5101792;28;20474;-83
2021/05/20 09:02:43;;;;;;;3.90;2.00;;;18.20;99.90;;;;;;5101617;28;20416;-83
2021/05/20 09:05:17;;;;;;;3.05;2.00;;;17.80;99.90;;;;;;5098780;28;20086;-83
2021/05/20 09:07:55;;;;;;;2.10;1.90;;;17.30;99.90;;;;;;5082987;28;20497;-82
2021/05/20 09:10:26;;;;;;;2.75;2.03;;;17.10;99.90;;;;;;5077056;28;20086;-81
2021/05/20 09:13:01;;;;;;;2.05;1.92;;;16.60;99.90;;;;;;5076401;28;20048;-81
2021/05/20 09:15:30;;;;;;;4.35;2.22;;;16.00;99.90;;;;;;5094394;28;20149;-81
2021/05/20 09:18:14;;;;;;;2.50;2.30;;;15.50;99.90;;;;;;5076836;28;20040;-80
2021/05/20 09:21:06;;;;;;;2.83;2.63;;;15.30;99.90;;;;;;5095028;28;20051;-82
2021/05/20 09:23:33;;;;;;;3.78;2.20;;;15.10;99.90;;;;;;5077220;28;20048;-81
2021/05/20 09:26:05;;;;;;;14.75;2.55;;;14.90;99.90;;;;;;5077216;28;20084;-83
2021/05/20 09:28:42;;;;;;;2.28;2.10;;;14.80;99.90;;;;;;5077071;28;20052;-85
2021/05/20 09:31:14;;;;;;;2.53;1.90;;;14.20;99.90;;;;;;5077043;28;20421;-84
2021/05/20 09:33:54;;;;;;;4.82;1.65;;;13.70;99.90;;;;;;5094839;28;20052;-85
2021/05/20 09:36:22;;;;;;;1.83;1.70;;;13.30;99.90;;;;;;5077011;28;20044;-86
2021/05/20 09:39:07;;;;;;;2.25;1.60;;;13.20;99.90;;;;;;5077058;28;20052;-82
2021/05/20 09:41:34;;;;;;;1.48;1.38;;;13.30;99.90;;;;;;5076666;28;20121;-85
2021/05/20 09:44:01;;;;;;;1.40;1.25;;;12.90;99.90;;;;;;5077342;28;20039;-85
2021/05/20 09:46:42;;;;;;;1.17;1.17;;;12.60;99.90;;;;;;5095451;28;20170;-85
2021/05/20 09:49:09;;;;;;;2.88;1.55;;;12.50;99.90;;;;;;5077036;28;20139;-86
2021/05/20 09:51:35;;;;;;;1.50;1.40;;;12.40;99.90;;;;;;5096495;28;20109;-84
2021/05/20 09:54:02;;;;;;;0.98;0.98;;;12.30;99.90;;;;;;5079494;28;20052;-83
2021/05/20 09:56:34;;;;;;;1.35;0.90;;;12.00;99.90;;;;;;5078411;28;20127;-83
2021/05/20 09:59:01;;;;;;;2.75;1.00;;;11.90;99.90;;;;;;5096622;28;20139;-86
2021/05/20 10:01:28;;;;;;;1.98;1.23;;;11.90;99.90;;;;;;5079987;28;20121;-83
2021/05/20 10:03:57;;;;;;;1.00;1.00;;;12.00;99.90;;;;;;5080325;28;20568;-83
2021/05/20 10:06:40;;;;;;;3.63;1.17;;;12.40;99.90;;;;;;5078816;28;20458;-84
2021/05/20 10:09:12;;;;;;;0.80;0.80;;;12.50;99.90;;;;;;5078676;28;20369;-84
2021/05/20 10:11:42;;;;;;;0.95;0.90;;;12.40;99.90;;;;;;5097018;28;20102;-82
2021/05/20 10:14:08;;;;;;;0.90;0.90;;;12.80;99.90;;;;;;5097188;28;20110;-83
2021/05/20 10:16:39;;;;;;;1.27;0.80;;;13.60;99.90;;;;;;5078011;28;20496;-82
2021/05/20 10:19:07;;;;;;;1.92;0.93;;;15.50;99.90;;;;;;5078428;28;20093;-83
2021/05/20 10:21:34;;;;;;;0.60;0.60;;;17.30;99.90;;;;;;5078471;28;20044;-82
2021/05/20 10:24:04;;;;;;;3.30;1.00;;;17.80;99.90;;;;;;5078088;28;20483;-83
2021/05/20 10:26:36;;;;;;;0.88;0.70;;;17.30;99.90;;;;;;5077838;28;20080;-84
2021/05/20 10:29:08;;;;;;;1.88;0.80;;;18.10;99.90;;;;;;5077749;28;20440;-82
2021/05/20 10:31:35;;;;;;;2.47;1.00;;;20.00;99.90;;;;;;5094916;28;20048;-82
2021/05/20 10:34:05;;;;;;;1.15;0.60;;;20.40;99.90;;;;;;5076697;28;20083;-83
2021/05/20 10:36:33;;;;;;;1.20;0.90;;;20.80;99.90;;;;;;5096160;28;20424;-83
2021/05/20 10:39:22;;;;;;;0.60;0.60;;;21.60;99.90;;;;;;5101176;28;20047;-84
2021/05/20 10:41:49;;;;;;;1.33;1.00;;;21.20;99.90;;;;;;5101145;28;20416;-83
2021/05/20 10:44:17;;;;;;;1.52;0.90;;;20.60;99.90;;;;;;5100858;28;20469;-84
2021/05/20 10:46:56;;;;;;;1.45;1.10;;;20.30;99.90;;;;;;5101299;28;20058;-84
2021/05/20 10:49:41;;;;;;;1.02;0.80;;;22.50;99.90;;;;;;5080804;28;20068;-83
2021/05/20 10:52:40;;;;;;;1.10;1.02;;;22.80;99.90;;;;;;5098616;28;20496;-83
2021/05/20 10:55:09;;;;;;;1.00;0.90;;;23.40;99.80;;;;;;5079856;28;20127;-83
2021/05/20 10:57:52;;;;;;;1.90;0.98;;;24.30;90.50;;;;;;5079370;28;20097;-83
2021/05/20 11:00:35;;;;;;;0.70;0.70;;;25.00;88.70;;;;;;5076180;28;20131;-82
2021/05/20 11:03:03;;;;;;;0.77;0.77;;;23.70;81.70;;;;;;5075469;28;20112;-81
2021/05/20 11:05:42;;;;;;;2.75;0.60;;;23.10;84.50;;;;;;5093369;28;20135;-82
2021/05/20 11:08:35;;;;;;;4.15;1.00;;;22.70;85.20;;;;;;5075603;28;20044;-81
2021/05/20 11:11:03;;;;;;;0.70;0.70;;;23.60;85.80;;;;;;5054630;28;20554;-82
2021/05/20 11:13:36;;;;;;;1.27;0.63;;;25.80;81.00;;;;;;5069537;28;20090;-82
2021/05/20 11:16:16;;;;;;;1.13;0.52;;;27.40;71.40;;;;;;5072670;28;20044;-81
2021/05/20 11:18:45;;;;;;;4.60;0.98;;;28.30;65.20;;;;;;5072569;28;20090;-81
2021/05/20 11:21:11;;;;;;;1.08;0.65;;;30.00;56.30;;;;;;5073000;28;20127;-80
2021/05/20 11:23:38;;;;;;;0.60;0.60;;;29.80;57.80;;;;;;5072730;28;20100;-80
2021/05/20 11:26:14;;;;;;;1.20;0.70;;;30.50;53.80;;;;;;5055148;28;20489;-80
2021/05/20 11:28:50;;;;;;;1.27;1.13;;;30.10;53.50;;;;;;5057459;28;20048;-80
2021/05/20 11:31:20;;;;;;;1.60;1.00;;;27.10;58.20;;;;;;5060252;28;20052;-79
2021/05/20 11:34:03;;;;;;;2.95;1.05;;;24.30;66.80;;;;;;5061766;28;20098;-81
2021/05/20 11:36:42;;;;;;;1.23;1.13;;;21.20;88.20;;;;;;5059870;28;20493;-79
2021/05/20 11:39:14;;;;;;;1.30;1.27;;;19.10;99.90;;;;;;5077435;28;20440;-80
2021/05/20 11:41:42;;;;;;;1.83;1.73;;;17.50;99.90;;;;;;5059559;28;20048;-85
2021/05/20 11:44:22;;;;;;;4.43;1.50;;;17.30;99.90;;;;;;5059994;28;20052;-82
2021/05/20 11:47:05;;;;;;;1.80;1.50;;;16.80;99.90;;;;;;5078156;28;20079;-82
2021/05/20 11:49:33;;;;;;;1.55;1.45;;;16.60;99.90;;;;;;5081328;28;20071;-81
2021/05/20 11:52:08;;;;;;;1.40;0.90;;;16.30;99.90;;;;;;5083481;28;20064;-81
2021/05/20 11:54:37;;;;;;;0.70;0.70;;;16.10;99.90;;;;;;5089652;28;20052;-82
2021/05/20 11:57:07;;;;;;;1.40;0.82;;;15.80;99.90;;;;;;5080939;28;20075;-82
2021/05/20 11:59:33;;;;;;;3.42;1.00;;;15.50;99.90;;;;;;5062286;28;20049;-82
2021/05/20 12:02:01;;;;;;;3.15;1.10;;;15.30;99.90;;;;;;5079196;28;20108;-82
2021/05/20 12:04:28;;;;;;;0.80;0.80;;;15.30;99.90;;;;;;5078464;28;20044;-82
2021/05/20 12:06:56;;;;;;;1.95;1.02;;;15.00;99.90;;;;;;5078652;28;20071;-82
2021/05/20 12:09:23;;;;;;;1.17;0.70;;;14.80;99.90;;;;;;5079326;28;20048;-82
2021/05/20 12:11:50;;;;;;;2.33;1.05;;;14.60;99.90;;;;;;5060600;28;20080;-81
2021/05/20 12:14:32;;;;;;;4.68;1.30;;;14.60;99.90;;;;;;5090350;28;20082;-83
2021/05/20 12:17:01;;;;;;;1.15;1.15;;;14.50;99.90;;;;;;5081554;28;20040;-83
2021/05/20 12:19:32;;;;;;;2.53;1.67;;;14.40;99.90;;;;;;5099490;28;20127;-83
2021/05/20 12:22:00;;;;;;;1.98;1.80;;;14.20;99.90;;;;;;5099068;28;20083;-82
2021/05/20 12:24:32;;;;;;;1.30;1.25;;;14.40;99.90;;;;;;5080703;28;20051;-82
2021/05/20 12:27:20;;;;;;;3.08;1.52;;;14.80;99.90;;;;;;5100637;28;20080;-81
2021/05/20 12:29:58;;;;;;;2.28;1.00;;;15.50;99.90;;;;;;5101770;28;20043;-82
2021/05/20 12:32:34;;;;;;;1.60;1.10;;;16.10;99.90;;;;;;5100979;28;20048;-82
2021/05/20 12:35:18;;;;;;;2.67;1.23;;;16.40;99.90;;;;;;5082833;28;20404;-81
2021/05/20 12:38:09;;;;;;;0.82;0.82;;;16.80;99.90;;;;;;5082441;28;20050;-82
2021/05/20 12:40:40;;;;;;;1.95;1.10;;;17.60;99.90;;;;;;5100312;28;20044;-81
2021/05/20 12:43:15;;;;;;;8.52;1.42;;;17.90;99.90;;;;;;5099421;28;20080;-82
2021/05/20 12:45:45;;;;;;;2.25;0.80;;;18.20;99.90;;;;;;5099347;28;20047;-81
2021/05/20 12:48:21;;;;;;;24.23;2.40;;;18.80;99.90;;;;;;5099027;28;20048;-81
2021/05/20 12:50:49;;;;;;;0.70;0.60;;;18.50;99.90;;;;;;5080730;28;20055;-81
2021/05/20 12:53:27;;;;;;;0.60;0.60;;;18.80;99.90;;;;;;5098261;28;20040;-81
2021/05/20 12:55:55;;;;;;;0.70;0.70;;;18.60;99.90;;;;;;5098407;28;20067;-81
2021/05/20 12:58:21;;;;;;;0.85;0.85;;;18.60;99.90;;;;;;5097094;28;20508;-81
2021/05/20 13:00:58;;;;;;;0.70;0.70;;;18.80;99.90;;;;;;5079404;28;20086;-81
2021/05/20 13:03:40;;;;;;;0.63;0.63;;;18.70;99.90;;;;;;5096594;28;20044;-80
2021/05/20 13:06:07;;;;;;;1.38;0.60;;;18.90;99.90;;;;;;5077620;28;20048;-79
2021/05/20 13:08:38;;;;;;;6.70;0.98;;;19.00;97.50;;;;;;5095422;28;20052;-80
2021/05/20 13:11:22;;;;;;;3.60;0.88;;;19.20;99.90;;;;;;5078041;28;20135;-80
2021/05/20 13:13:52;;;;;;;2.78;0.77;;;19.50;99.90;;;;;;5095917;28;20147;-81
2021/05/20 13:16:36;;;;;;;0.60;0.60;;;19.50;99.60;;;;;;5095534;28;20126;-81